Terminal Aerodrome Forecast
Issued by NWS

Home | Current Version | Previous Version | Text Only | Print | Product List | Glossary On
Versions: 1 2 3 4 5 6 7 8 9 10 11 12 13 14 15 16 17 18 19 20 21 22 23 24
000
FTUS42 KRAH 240700 AAA
TAFINT
TAF AMD
KINT 240700Z 2407/2506 24011G18KT P6SM SCT020 BKN050 BKN250
      TEMPO 2407/2408 BKN020
     FM241200 26009KT P6SM SCT040 BKN150=

USA.gov is the U.S. government's official web portal to all federal, state and local government web resources and services.